createdAt,value
2017-08-25T00:00:18.789Z,1001.07
2017-08-25T00:01:29.129Z,1001.15
2017-08-25T00:02:39.529Z,1001.12
2017-08-25T00:03:49.242Z,1001.08
2017-08-25T00:04:59.588Z,1001.12
2017-08-25T00:06:09.920Z,1001.07
2017-08-25T00:07:19.936Z,1001.08
2017-08-25T00:08:30.343Z,1001.02
2017-08-25T00:09:40.694Z,1001.04
2017-08-25T00:10:51.058Z,1001.06
2017-08-25T00:12:01.422Z,1001.02
2017-08-25T00:13:11.493Z,1001.06
2017-08-25T00:14:21.877Z,1001.02
2017-08-25T00:15:31.903Z,1001.02
2017-08-25T00:16:42.250Z,1001
2017-08-25T00:17:53.585Z,1000.99
2017-08-25T00:19:03.937Z,1000.98
2017-08-25T00:20:14.014Z,1000.91
2017-08-25T00:21:26.254Z,1000.89
2017-08-25T00:22:35.969Z,1000.86
2017-08-25T00:23:45.997Z,1000.86
2017-08-25T00:24:56.357Z,1000.75
2017-08-25T00:26:06.761Z,1000.84
2017-08-25T00:27:17.114Z,1000.77
2017-08-25T00:28:27.471Z,1000.87
2017-08-25T00:29:37.816Z,1000.8
2017-08-25T00:30:47.857Z,1000.83
2017-08-25T00:31:59.609Z,1000.77
2017-08-25T00:33:09.633Z,1000.79
2017-08-25T00:34:19.990Z,1000.88
2017-08-25T00:35:30.378Z,1000.79
2017-08-25T00:36:40.725Z,1000.84
2017-08-25T00:37:50.798Z,1000.79
2017-08-25T00:39:01.143Z,1000.84
2017-08-25T00:40:11.490Z,1000.83
2017-08-25T00:41:23.979Z,1000.89
2017-08-25T00:42:34.014Z,1000.99
2017-08-25T00:43:44.414Z,1000.89
2017-08-25T00:44:54.128Z,1000.92
2017-08-25T00:46:04.484Z,1000.99
2017-08-25T00:47:14.843Z,1000.98
2017-08-25T00:48:25.190Z,1001.01
2017-08-25T00:49:35.597Z,1001.07
2017-08-25T00:50:45.929Z,1000.95
2017-08-25T00:51:55.951Z,1000.92
2017-08-25T00:53:06.316Z,1000.88
2017-08-25T00:54:16.682Z,1000.84
2017-08-25T00:55:27.066Z,1000.67
2017-08-25T00:56:37.421Z,1000.74
2017-08-25T00:57:47.769Z,1000.67
2017-08-25T00:58:58.105Z,1000.65
2017-08-25T01:00:08.133Z,1000.53
2017-08-25T01:01:18.532Z,1000.55
2017-08-25T01:02:28.560Z,1000.53
2017-08-25T01:03:38.589Z,1000.5
2017-08-25T01:04:48.933Z,1000.47
2017-08-25T01:05:59.280Z,1000.42
2017-08-25T01:07:09.653Z,1000.35
2017-08-25T01:08:19.680Z,1000.35
2017-08-25T01:09:30.025Z,1000.29
2017-08-25T01:10:40.369Z,1000.23
2017-08-25T01:11:50.705Z,1000.27
2017-08-25T01:13:00.792Z,1000.21
2017-08-25T01:14:10.867Z,1000.22
2017-08-25T01:15:21.219Z,1000.11
2017-08-25T01:16:31.566Z,1000.06
2017-08-25T01:17:41.915Z,999.92
2017-08-25T01:18:52.312Z,999.83
2017-08-25T01:20:03.686Z,999.72
2017-08-25T01:21:14.038Z,999.54
2017-08-25T01:22:24.398Z,999.41
2017-08-25T01:23:34.742Z,999.31
2017-08-25T01:24:44.811Z,999.21
2017-08-25T01:25:55.152Z,999.15
2017-08-25T01:27:04.872Z,999.07
2017-08-25T01:28:15.256Z,999.04
2017-08-25T01:29:25.599Z,998.98
2017-08-25T01:30:35.668Z,998.86
2017-08-25T01:31:45.702Z,998.95
2017-08-25T01:32:56.044Z,998.82
2017-08-25T01:34:06.389Z,998.8
2017-08-25T01:35:16.750Z,998.75
2017-08-25T01:36:27.148Z,998.67
2017-08-25T01:37:37.508Z,998.81
2017-08-25T01:38:47.885Z,998.87
2017-08-25T01:39:57.913Z,999.01
2017-08-25T01:41:08.265Z,999.06
2017-08-25T01:42:18.360Z,999.14
2017-08-25T01:43:28.702Z,999.19
2017-08-25T01:44:38.429Z,999.17
2017-08-25T01:45:48.781Z,999.14
2017-08-25T01:46:59.682Z,999.13
2017-08-25T01:48:10.078Z,999.15
2017-08-25T01:49:20.426Z,999.12
2017-08-25T01:50:30.444Z,999.14
2017-08-25T01:51:40.799Z,999.2
2017-08-25T01:52:51.130Z,999.2
2017-08-25T01:54:01.573Z,999.17
2017-08-25T01:55:11.297Z,999.15
2017-08-25T01:56:21.631Z,999.05
2017-08-25T01:57:31.965Z,998.99
2017-08-25T01:58:41.999Z,998.85
2017-08-25T01:59:52.387Z,998.83
2017-08-25T02:01:02.730Z,998.85
2017-08-25T02:02:13.081Z,998.81
2017-08-25T02:03:23.147Z,998.75
2017-08-25T02:04:33.496Z,998.76
2017-08-25T02:05:43.910Z,998.71
2017-08-25T02:06:54.242Z,998.7
2017-08-25T02:08:04.266Z,998.74
2017-08-25T02:09:14.633Z,998.8
2017-08-25T02:10:24.983Z,998.88
2017-08-25T02:11:35.395Z,998.94
2017-08-25T02:12:45.111Z,999.03
2017-08-25T02:13:55.379Z,999.1
2017-08-25T02:15:05.735Z,999.23
2017-08-25T02:16:15.762Z,999.31
2017-08-25T02:17:26.170Z,999.54
2017-08-25T02:18:37.414Z,999.78
2017-08-25T02:19:47.773Z,999.99
2017-08-25T02:20:58.117Z,1000.01
2017-08-25T02:22:08.474Z,999.97
2017-08-25T02:23:18.566Z,999.99
2017-08-25T02:24:28.919Z,999.96
2017-08-25T02:25:38.956Z,999.95
2017-08-25T02:26:49.307Z,999.98
2017-08-25T02:27:59.663Z,999.96
2017-08-25T02:29:10.052Z,999.95
2017-08-25T02:30:20.424Z,1000.01
2017-08-25T02:31:30.796Z,1000.04
2017-08-25T02:32:41.134Z,1000.09
2017-08-25T02:33:51.508Z,1000.1
2017-08-25T02:35:01.887Z,1000.14
2017-08-25T02:36:11.917Z,1000.17
2017-08-25T02:37:22.274Z,1000.2
2017-08-25T02:38:32.306Z,1000.3
2017-08-25T02:39:42.672Z,1000.35
2017-08-25T02:40:53.109Z,1000.31
2017-08-25T02:42:03.136Z,1000.28
2017-08-25T02:43:13.494Z,1000.26
2017-08-25T02:44:23.528Z,1000.26
2017-08-25T02:45:33.881Z,1000.27
2017-08-25T02:46:44.279Z,1000.25
2017-08-25T02:47:54.615Z,1000.25
2017-08-25T02:49:04.986Z,1000.28
2017-08-25T02:50:15.339Z,1000.25
2017-08-25T02:51:25.375Z,1000.24
2017-08-25T02:52:35.771Z,1000.18
2017-08-25T02:53:46.113Z,1000.24
2017-08-25T02:54:56.150Z,1000.19
2017-08-25T02:56:06.498Z,1000.16
2017-08-25T02:57:16.873Z,1000.08
2017-08-25T02:58:27.265Z,1000.13
2017-08-25T02:59:37.646Z,1000.08
2017-08-25T03:00:48.002Z,1000.06
2017-08-25T03:33:10.423Z,1000.52
2017-08-25T03:34:20.435Z,1000.56
2017-08-25T03:35:30.132Z,1000.56
2017-08-25T03:36:40.462Z,1000.59
2017-08-25T03:37:50.822Z,1000.55
2017-08-25T03:39:01.245Z,1000.59
2017-08-25T03:40:11.599Z,1000.6
2017-08-25T03:41:21.952Z,1000.6
2017-08-25T03:42:32.304Z,1000.63
2017-08-25T03:43:42.650Z,1000.64
2017-08-25T03:44:53.048Z,1000.73
2017-08-25T03:46:03.073Z,1000.74
2017-08-25T03:47:13.094Z,1000.72
2017-08-25T03:48:23.118Z,1000.73
2017-08-25T03:49:35.641Z,1000.75
2017-08-25T03:50:45.734Z,1000.77
2017-08-25T03:51:55.766Z,1000.77
2017-08-25T03:53:06.105Z,1000.77
2017-08-25T03:54:16.445Z,1000.79
2017-08-25T03:55:26.486Z,1000.79
2017-08-25T03:56:36.558Z,1000.83
2017-08-25T03:57:46.897Z,1000.84
2017-08-25T03:58:57.253Z,1000.88
2017-08-25T04:00:07.609Z,1000.93
2017-08-25T04:01:17.946Z,1000.91
2017-08-25T04:02:28.358Z,1000.94
2017-08-25T04:03:38.702Z,1000.97
2017-08-25T04:04:49.037Z,1000.99
2017-08-25T04:05:59.060Z,1001.01
2017-08-25T04:07:09.094Z,1001.02
2017-08-25T04:08:19.485Z,1001.07
2017-08-25T04:09:29.832Z,1001.07
2017-08-25T04:10:40.175Z,1001.08
2017-08-25T04:11:50.757Z,1001.12
2017-08-25T04:13:00.455Z,1001.09
2017-08-25T04:14:10.837Z,1001.1
2017-08-25T04:15:21.192Z,1001.12
2017-08-25T04:16:31.220Z,1001.17
2017-08-25T04:17:41.252Z,1001.2
2017-08-25T04:18:51.582Z,1001.2
2017-08-25T04:20:01.655Z,1001.2
2017-08-25T04:21:12.006Z,1001.19
2017-08-25T04:22:22.024Z,1001.2
2017-08-25T04:23:32.064Z,1001.25
2017-08-25T04:24:42.087Z,1001.23
2017-08-25T04:25:52.492Z,1001.26
2017-08-25T04:27:02.839Z,1001.29
2017-08-25T04:28:13.201Z,1001.28
2017-08-25T04:29:23.248Z,1001.3
2017-08-25T04:30:33.592Z,1001.33
2017-08-25T04:31:43.682Z,1001.32
2017-08-25T04:32:54.008Z,1001.32
2017-08-25T04:34:04.047Z,1001.34
2017-08-25T04:35:14.059Z,1001.33
2017-08-25T04:36:23.764Z,1001.38
2017-08-25T04:37:34.155Z,1001.34
2017-08-25T04:38:44.484Z,1001.35
2017-08-25T04:39:54.838Z,1001.35
2017-08-25T04:41:04.860Z,1001.37
2017-08-25T04:42:15.217Z,1001.37
2017-08-25T04:43:25.290Z,1001.4
2017-08-25T04:44:35.637Z,1001.35
2017-08-25T04:45:45.983Z,1001.37
2017-08-25T04:46:56.329Z,1001.35
2017-08-25T04:48:06.671Z,1001.33
2017-08-25T04:49:17.058Z,1001.4
2017-08-25T04:50:27.420Z,1001.39
2017-08-25T04:51:37.456Z,1001.38
2017-08-25T04:52:47.795Z,1001.37
2017-08-25T04:53:57.831Z,1001.35
2017-08-25T04:55:07.911Z,1001.33
2017-08-25T04:56:17.939Z,1001.36
2017-08-25T04:57:27.960Z,1001.46
2017-08-25T04:58:37.982Z,1001.48
2017-08-25T04:59:48.321Z,1001.34
2017-08-25T05:00:58.396Z,1001.37
2017-08-25T05:02:08.722Z,1001.45
2017-08-25T05:03:19.050Z,1001.42
2017-08-25T05:04:29.406Z,1001.42
2017-08-25T05:05:39.428Z,1001.48
2017-08-25T05:06:49.813Z,1001.46
2017-08-25T05:07:59.868Z,1001.82
2017-08-25T05:09:10.217Z,1001.8
2017-08-25T05:10:20.240Z,1001.53
2017-08-25T05:11:30.297Z,1001.56
2017-08-25T05:12:40.683Z,1001.54
2017-08-25T05:13:51.021Z,1001.55
2017-08-25T05:15:01.362Z,1001.58
2017-08-25T05:16:11.394Z,1001.57
2017-08-25T05:17:21.737Z,1001.5
2017-08-25T05:18:31.857Z,1001.51
2017-08-25T05:19:43.693Z,1001.47
2017-08-25T05:20:54.029Z,1001.4
2017-08-25T05:22:04.377Z,1001.45
2017-08-25T05:23:14.078Z,1001.46
2017-08-25T05:24:24.148Z,1001.45
2017-08-25T05:25:34.207Z,1001.57
2017-08-25T05:26:44.544Z,1001.53
2017-08-25T05:27:54.562Z,1001.52
2017-08-25T05:29:04.603Z,1001.55
2017-08-25T05:30:15.008Z,1001.54
2017-08-25T05:31:25.366Z,1001.58
2017-08-25T05:32:35.726Z,1001.57
2017-08-25T05:33:45.780Z,1001.54
2017-08-25T05:34:56.125Z,1001.51
2017-08-25T05:36:06.520Z,1001.54
2017-08-25T05:37:16.865Z,1001.56
2017-08-25T05:38:27.198Z,1001.59
2017-08-25T05:39:37.233Z,1001.61
2017-08-25T05:40:47.592Z,1001.76
2017-08-25T05:41:57.665Z,1001.67
2017-08-25T05:43:07.685Z,1001.66
2017-08-25T05:44:17.711Z,1001.64
2017-08-25T05:45:28.058Z,1001.76
2017-08-25T05:46:38.074Z,1001.87
2017-08-25T05:47:48.463Z,1001.93
2017-08-25T05:48:58.494Z,1001.8
2017-08-25T05:50:10.830Z,1001.58
2017-08-25T05:51:21.236Z,1001.55
2017-08-25T05:52:31.587Z,1001.54
2017-08-25T05:53:41.980Z,1001.61
2017-08-25T05:54:52.324Z,1001.67
2017-08-25T05:56:02.661Z,1001.74
2017-08-25T05:57:12.681Z,1001.85
2017-08-25T05:58:22.707Z,1001.78
2017-08-25T05:59:33.091Z,1001.7
2017-08-25T06:00:43.136Z,1001.62
2017-08-25T06:01:53.504Z,1001.66
2017-08-25T06:03:03.533Z,1001.7
2017-08-25T06:04:13.555Z,1001.64
2017-08-25T06:05:23.945Z,1001.71
2017-08-25T06:06:34.311Z,1001.71
2017-08-25T06:07:44.648Z,1001.65
2017-08-25T06:08:54.359Z,1001.61
2017-08-25T06:10:04.727Z,1001.63
2017-08-25T06:11:15.127Z,1001.62
2017-08-25T06:12:25.469Z,1001.61
2017-08-25T06:13:35.500Z,1001.63
2017-08-25T06:14:45.532Z,1001.65
2017-08-25T06:15:55.870Z,1001.68
2017-08-25T06:17:05.941Z,1001.71
2017-08-25T06:18:16.533Z,1001.7
2017-08-25T06:19:26.878Z,1001.72
2017-08-25T06:20:37.778Z,1001.73
2017-08-25T06:21:47.798Z,1001.75
2017-08-25T06:22:58.203Z,1001.76
2017-08-25T06:24:08.226Z,1001.77
2017-08-25T06:25:18.920Z,1001.77
2017-08-25T06:26:29.288Z,1001.75
2017-08-25T06:27:39.310Z,1001.78
2017-08-25T06:28:49.695Z,1001.8
2017-08-25T06:30:00.036Z,1001.81
2017-08-25T06:31:10.392Z,1001.84
2017-08-25T06:32:20.724Z,1001.87
2017-08-25T06:33:31.071Z,1001.84
2017-08-25T06:34:41.513Z,1001.87
2017-08-25T06:35:51.846Z,1001.87
2017-08-25T06:37:04.253Z,1001.86
2017-08-25T06:38:14.611Z,1001.89
2017-08-25T06:39:24.966Z,1001.9
2017-08-25T06:40:35.048Z,1001.9
2017-08-25T06:41:45.338Z,1001.95
2017-08-25T06:42:55.700Z,1001.92
2017-08-25T06:44:06.041Z,1001.93
2017-08-25T06:45:16.380Z,1001.93
2017-08-25T06:46:26.137Z,1001.92
2017-08-25T06:47:36.157Z,1001.92
2017-08-25T06:48:46.183Z,1001.93
2017-08-25T06:49:56.566Z,1001.89
2017-08-25T06:51:06.605Z,1001.91
2017-08-25T06:52:16.994Z,1001.9
2017-08-25T06:53:27.342Z,1001.87
2017-08-25T06:54:37.689Z,1001.86
2017-08-25T06:55:48.060Z,1001.89
2017-08-25T06:56:58.101Z,1001.93
2017-08-25T06:58:08.178Z,1001.92
2017-08-25T06:59:18.549Z,1001.93
2017-08-25T07:00:28.901Z,1001.86
2017-08-25T07:01:39.279Z,1001.86
2017-08-25T07:02:51.187Z,1001.89
2017-08-25T07:04:01.262Z,1001.92
2017-08-25T07:05:11.295Z,1001.92
2017-08-25T07:06:21.642Z,1001.94
2017-08-25T07:07:31.993Z,1001.92
2017-08-25T07:08:41.704Z,1001.99
2017-08-25T07:09:52.082Z,1001.94
2017-08-25T07:11:01.819Z,1001.94
2017-08-25T07:12:12.160Z,1001.93
2017-08-25T07:13:22.440Z,1001.94
2017-08-25T07:14:32.470Z,1001.94
2017-08-25T07:15:43.172Z,1001.93
2017-08-25T07:16:53.521Z,1001.93
2017-08-25T07:18:03.868Z,1001.91
2017-08-25T07:19:14.221Z,1001.92
2017-08-25T07:20:27.393Z,1001.91
2017-08-25T07:21:39.699Z,1001.91
2017-08-25T07:22:50.046Z,1001.9
2017-08-25T07:24:00.392Z,1001.88
2017-08-25T07:25:10.748Z,1001.86
2017-08-25T07:26:21.097Z,1001.86
2017-08-25T07:27:31.498Z,1001.88
2017-08-25T07:28:41.861Z,1001.89
2017-08-25T07:29:51.897Z,1001.92
2017-08-25T07:31:01.927Z,1001.96
2017-08-25T07:32:11.952Z,1001.95
2017-08-25T07:33:22.367Z,1001.94
2017-08-25T07:34:32.415Z,1001.96
2017-08-25T07:35:42.758Z,1001.96
2017-08-25T07:36:53.113Z,1002
2017-08-25T07:38:03.475Z,1002
2017-08-25T07:39:13.240Z,1002
2017-08-25T07:40:23.597Z,1002.02
2017-08-25T07:41:33.950Z,1002.03
2017-08-25T07:42:43.982Z,1002.05
2017-08-25T07:43:53.698Z,1002.09
2017-08-25T07:45:03.725Z,1002.09
2017-08-25T07:46:14.090Z,1002.05
2017-08-25T07:47:24.427Z,1002.05
2017-08-25T07:48:34.826Z,1002.04
2017-08-25T07:49:45.177Z,1002.06
2017-08-25T07:50:55.525Z,1002.08
2017-08-25T07:52:05.902Z,1002.1
2017-08-25T07:53:16.305Z,1002.08
2017-08-25T07:54:27.589Z,1002.11
2017-08-25T07:55:37.600Z,1002.1
2017-08-25T07:56:47.946Z,1002.11
2017-08-25T07:57:58.300Z,1002.14
2017-08-25T07:59:08.645Z,1002.16
2017-08-25T08:00:19.002Z,1002.13
2017-08-25T08:01:29.041Z,1002.14
2017-08-25T08:02:39.123Z,1002.12
2017-08-25T08:03:49.460Z,1002.06
2017-08-25T08:04:59.823Z,1002.05
2017-08-25T08:06:10.188Z,1002.09
2017-08-25T08:07:20.234Z,1002.03
2017-08-25T08:08:30.642Z,1001.98
2017-08-25T08:09:40.998Z,1002.01
2017-08-25T08:10:51.345Z,1002.03
2017-08-25T08:12:01.060Z,1002
2017-08-25T08:13:11.082Z,1002.01
2017-08-25T08:14:21.505Z,1002.04
2017-08-25T08:15:32.206Z,1002
2017-08-25T08:16:42.595Z,1002.04
2017-08-25T08:17:52.626Z,1002.04
2017-08-25T08:19:03.008Z,1002.07
2017-08-25T08:20:13.427Z,1002.09
2017-08-25T08:21:23.789Z,1002.08
2017-08-25T08:22:33.817Z,1002.1
2017-08-25T08:23:44.177Z,1002.06
2017-08-25T08:24:54.254Z,1002.07
2017-08-25T08:26:04.661Z,1002.11
2017-08-25T08:27:14.690Z,1002.07
2017-08-25T08:28:27.205Z,1002.06
2017-08-25T08:29:37.223Z,1002.08
2017-08-25T08:30:47.568Z,1002.06
2017-08-25T08:31:57.020Z,1002.02
2017-08-25T08:33:07.409Z,1002.06
2017-08-25T08:34:17.775Z,1002.02
2017-08-25T08:35:27.816Z,1002.03
2017-08-25T08:36:37.538Z,1002.01
2017-08-25T08:37:47.934Z,1002.04
2017-08-25T08:38:58.288Z,1002.04
2017-08-25T08:40:08.660Z,1002.06
2017-08-25T08:41:18.681Z,1002.05
2017-08-25T08:42:29.026Z,1002.05
2017-08-25T08:43:39.426Z,1002.05
2017-08-25T08:44:49.458Z,1002.07
2017-08-25T08:45:59.816Z,1002.06
2017-08-25T08:47:10.153Z,1002.09
2017-08-25T08:48:20.201Z,1002.09
2017-08-25T08:49:30.323Z,1002.01
2017-08-25T08:50:40.677Z,1002
2017-08-25T08:51:51.032Z,1002.06
2017-08-25T08:53:01.392Z,1002
2017-08-25T08:54:11.739Z,1001.99
2017-08-25T08:55:21.822Z,1002.01
2017-08-25T08:56:32.179Z,1002.01
2017-08-25T08:57:42.538Z,1001.95
2017-08-25T08:58:52.881Z,1001.91
2017-08-25T09:00:03.249Z,1001.92
2017-08-25T09:01:13.662Z,1001.96
2017-08-25T09:02:23.999Z,1001.95
2017-08-25T09:03:34.404Z,1001.97
2017-08-25T09:04:44.748Z,1001.98
2017-08-25T09:05:55.091Z,1001.99
2017-08-25T09:07:05.492Z,1001.96
2017-08-25T09:08:15.840Z,1002
2017-08-25T09:09:26.189Z,1001.97
2017-08-25T09:10:36.536Z,1001.94
2017-08-25T09:11:46.896Z,1001.88
2017-08-25T09:12:57.292Z,1001.95
2017-08-25T09:14:07.334Z,1001.93
2017-08-25T09:15:21.882Z,1001.97
2017-08-25T09:16:31.613Z,1002
2017-08-25T09:17:41.965Z,1001.99
2017-08-25T09:18:51.763Z,1001.97
2017-08-25T09:20:02.100Z,1001.98
2017-08-25T09:21:12.450Z,1001.96
2017-08-25T09:22:21.871Z,1001.95
2017-08-25T09:23:31.579Z,1001.97
2017-08-25T09:24:41.916Z,1001.95
2017-08-25T09:25:52.276Z,1001.93
2017-08-25T09:27:02.640Z,1001.94
2017-08-25T09:28:12.418Z,1001.9
2017-08-25T09:29:22.468Z,1001.92
2017-08-25T09:30:32.831Z,1001.86
2017-08-25T09:31:43.180Z,1001.9
2017-08-25T09:32:53.224Z,1001.87
2017-08-25T09:34:05.595Z,1001.91
2017-08-25T09:35:15.641Z,1001.9
2017-08-25T09:36:25.359Z,1001.93
2017-08-25T09:37:35.719Z,1001.89
2017-08-25T09:38:45.756Z,1001.85
2017-08-25T09:39:56.165Z,1001.89
2017-08-25T09:41:06.526Z,1001.88
2017-08-25T09:42:16.887Z,1001.84
2017-08-25T09:43:27.234Z,1001.86
2017-08-25T09:44:40.993Z,1001.83
2017-08-25T09:45:51.403Z,1001.85
2017-08-25T09:47:01.450Z,1001.87
2017-08-25T09:48:11.802Z,1001.85
2017-08-25T09:49:21.519Z,1001.85
2017-08-25T09:50:31.584Z,1001.84
2017-08-25T09:51:41.683Z,1001.84
2017-08-25T09:52:51.417Z,1001.82
2017-08-25T09:54:01.483Z,1001.84
2017-08-25T09:55:11.531Z,1001.79
2017-08-25T09:56:21.901Z,1001.8
2017-08-25T09:57:32.310Z,1001.83
2017-08-25T09:58:42.328Z,1001.84
2017-08-25T09:59:52.684Z,1001.79
2017-08-25T10:01:02.745Z,1001.78
2017-08-25T10:02:13.118Z,1001.77
2017-08-25T10:03:23.209Z,1001.75
2017-08-25T10:04:33.237Z,1001.76
2017-08-25T10:05:43.273Z,1001.77
2017-08-25T10:06:53.614Z,1001.76
2017-08-25T10:08:03.970Z,1001.74
2017-08-25T10:09:14.052Z,1001.75
2017-08-25T10:10:25.996Z,1001.77
2017-08-25T10:11:36.342Z,1001.75
2017-08-25T10:12:46.064Z,1001.7
2017-08-25T10:13:59.826Z,1001.71
2017-08-25T10:15:10.224Z,1001.7
2017-08-25T10:16:20.588Z,1001.71
2017-08-25T10:17:30.623Z,1001.69
2017-08-25T10:18:40.657Z,1001.66
2017-08-25T10:19:51.036Z,1001.65
2017-08-25T10:21:01.459Z,1001.63
2017-08-25T10:22:11.522Z,1001.59
2017-08-25T10:23:21.878Z,1001.6
2017-08-25T10:24:31.926Z,1001.61
2017-08-25T10:25:42.208Z,1001.57
2017-08-25T10:26:52.604Z,1001.55
2017-08-25T10:28:02.946Z,1001.52
2017-08-25T10:29:12.985Z,1001.52
2017-08-25T10:30:23.358Z,1001.52
2017-08-25T10:31:33.382Z,1001.49
2017-08-25T10:32:43.784Z,1001.46
2017-08-25T10:33:53.844Z,1001.49
2017-08-25T10:35:04.203Z,1001.45
2017-08-25T10:36:14.549Z,1001.48
2017-08-25T10:37:24.902Z,1001.47
2017-08-25T10:38:35.314Z,1001.38
2017-08-25T10:39:45.356Z,1001.45
2017-08-25T10:40:55.721Z,1001.38
2017-08-25T10:42:05.762Z,1001.4
2017-08-25T10:43:16.104Z,1001.4
2017-08-25T10:44:26.187Z,1001.38
2017-08-25T10:45:36.558Z,1001.41
2017-08-25T10:46:46.919Z,1001.4
2017-08-25T10:47:57.267Z,1001.42
2017-08-25T10:49:07.634Z,1001.43
2017-08-25T10:50:19.983Z,1001.42
2017-08-25T10:51:30.337Z,1001.4
2017-08-25T10:52:40.701Z,1001.43
2017-08-25T10:53:50.733Z,1001.45
2017-08-25T10:55:01.140Z,1001.42
2017-08-25T10:56:11.502Z,1001.37
2017-08-25T10:57:21.867Z,1001.42
2017-08-25T10:58:32.248Z,1001.41
2017-08-25T10:59:42.311Z,1001.42
2017-08-25T11:00:52.722Z,1001.42
2017-08-25T11:02:03.084Z,1001.37
2017-08-25T11:03:13.427Z,1001.4
2017-08-25T11:04:23.786Z,1001.42
2017-08-25T11:05:34.155Z,1001.36
2017-08-25T11:06:44.579Z,1001.35
2017-08-25T11:07:54.621Z,1001.31
2017-08-25T11:09:04.669Z,1001.34
2017-08-25T11:10:15.017Z,1001.32
2017-08-25T11:11:25.377Z,1001.27
2017-08-25T11:12:35.733Z,1001.28
2017-08-25T11:13:46.090Z,1001.26
2017-08-25T11:14:56.162Z,1001.26
2017-08-25T11:16:06.515Z,1001.29
2017-08-25T11:17:16.867Z,1001.21
2017-08-25T11:18:27.230Z,1001.2
2017-08-25T11:19:37.587Z,1001.16
2017-08-25T11:20:47.673Z,1001.15
2017-08-25T11:21:58.021Z,1001.1
2017-08-25T11:23:08.366Z,1001.11
2017-08-25T11:24:18.717Z,1001.11
2017-08-25T11:25:30.671Z,1001.08
2017-08-25T11:26:40.820Z,1001.04
2017-08-25T11:27:51.181Z,1001.05
2017-08-25T11:29:01.224Z,1001.01
2017-08-25T11:30:11.250Z,1000.98
2017-08-25T11:31:21.284Z,1000.99
2017-08-25T11:32:31.710Z,1001.04
2017-08-25T11:33:42.066Z,1000.96
2017-08-25T11:34:52.094Z,1001.02
2017-08-25T11:36:02.463Z,1000.98
2017-08-25T11:37:12.832Z,1000.96
2017-08-25T11:38:23.257Z,1000.95
2017-08-25T11:39:33.619Z,1000.93
2017-08-25T11:40:43.977Z,1000.99
2017-08-25T11:41:54.327Z,1000.95
2017-08-25T11:43:04.681Z,1000.91
2017-08-25T11:44:15.090Z,1000.94
2017-08-25T11:45:25.125Z,1000.94
2017-08-25T11:46:35.490Z,1000.93
2017-08-25T11:47:45.837Z,1000.91
2017-08-25T11:48:56.207Z,1000.93
2017-08-25T11:50:06.618Z,1000.91
2017-08-25T11:51:16.972Z,1000.96
2017-08-25T11:52:27.321Z,1000.95
2017-08-25T11:53:37.697Z,1000.92
2017-08-25T11:54:47.759Z,1000.94
2017-08-25T11:56:00.360Z,1000.92
2017-08-25T11:57:10.826Z,1000.93
2017-08-25T11:58:21.200Z,1000.93
2017-08-25T11:59:31.562Z,1000.9
2017-08-25T12:00:41.920Z,1000.89
2017-08-25T12:01:52.003Z,1000.84
2017-08-25T12:03:02.355Z,1000.82
2017-08-25T12:04:12.389Z,1000.82
2017-08-25T12:05:22.418Z,1000.81
2017-08-25T12:06:32.774Z,1000.86
2017-08-25T12:07:42.858Z,1000.84
2017-08-25T12:08:53.220Z,1000.79
2017-08-25T12:10:03.579Z,1000.85
2017-08-25T12:11:13.952Z,1000.85
2017-08-25T12:12:23.994Z,1000.85
2017-08-25T12:13:34.111Z,1000.84
2017-08-25T12:14:44.463Z,1000.85
2017-08-25T12:15:54.817Z,1000.82
2017-08-25T12:17:06.476Z,1000.85
2017-08-25T12:18:16.839Z,1000.82
2017-08-25T12:19:26.923Z,1000.78
2017-08-25T12:20:37.262Z,1000.81
2017-08-25T12:21:47.620Z,1000.74
2017-08-25T12:22:57.967Z,1000.8
2017-08-25T12:24:07.998Z,1000.74
2017-08-25T12:25:18.084Z,1000.76
2017-08-25T12:26:28.130Z,1000.69
2017-08-25T12:27:40.793Z,1000.74
2017-08-25T12:28:50.816Z,1000.71
2017-08-25T12:30:01.158Z,1000.68
2017-08-25T12:31:11.559Z,1000.69
2017-08-25T12:32:21.915Z,1000.65
2017-08-25T12:33:32.274Z,1000.64
2017-08-25T12:34:42.442Z,1000.66
2017-08-25T12:35:54.625Z,1000.67
2017-08-25T12:37:05.032Z,1000.68
2017-08-25T12:38:15.077Z,1000.68
2017-08-25T12:39:25.427Z,1000.66
2017-08-25T12:40:35.456Z,1000.66
2017-08-25T12:41:45.809Z,1000.64
2017-08-25T12:42:55.895Z,1000.61
2017-08-25T12:44:05.927Z,1000.58
2017-08-25T12:45:16.287Z,1000.56
2017-08-25T12:46:26.671Z,1000.58
2017-08-25T12:47:37.462Z,1000.51
2017-08-25T12:48:47.868Z,1000.56
2017-08-25T12:49:57.913Z,1000.55
2017-08-25T12:51:08.260Z,1000.52
2017-08-25T12:52:18.609Z,1000.5
2017-08-25T12:53:28.656Z,1000.46
2017-08-25T12:54:39.049Z,1000.47
2017-08-25T12:55:49.411Z,1000.52
2017-08-25T12:57:00.000Z,1000.46
2017-08-25T12:58:10.364Z,1000.45
2017-08-25T12:59:21.602Z,1000.43
2017-08-25T13:00:31.711Z,1000.45
2017-08-25T13:01:42.085Z,1000.43
2017-08-25T13:02:52.468Z,1000.42
2017-08-25T13:04:02.506Z,1000.4
2017-08-25T13:05:12.871Z,1000.45
2017-08-25T13:06:23.290Z,1000.45
2017-08-25T13:07:33.654Z,1000.46
2017-08-25T13:08:48.326Z,1000.44
2017-08-25T13:09:58.054Z,1000.41
2017-08-25T13:11:08.475Z,1000.44
2017-08-25T13:12:18.883Z,1000.39
2017-08-25T13:13:29.247Z,1000.39
2017-08-25T13:14:38.660Z,1000.35
2017-08-25T13:15:49.026Z,1000.31
2017-08-25T13:16:59.072Z,1000.29
2017-08-25T13:18:09.498Z,1000.25
2017-08-25T13:19:19.873Z,1000.26
2017-08-25T13:20:30.217Z,1000.24
2017-08-25T13:21:40.260Z,1000.25
2017-08-25T13:22:50.306Z,1000.22
2017-08-25T13:24:00.411Z,1000.18
2017-08-25T13:25:10.759Z,1000.18
2017-08-25T13:26:21.132Z,1000.19
2017-08-25T13:27:31.165Z,1000.18
2017-08-25T13:28:42.990Z,1000.17
2017-08-25T13:29:53.442Z,1000.18
2017-08-25T13:31:03.801Z,1000.14
2017-08-25T13:32:14.164Z,1000.12
2017-08-25T13:33:24.212Z,1000.14
2017-08-25T13:34:34.566Z,1000.12
2017-08-25T13:35:44.979Z,1000.17
2017-08-25T13:36:55.320Z,1000.12
2017-08-25T13:38:05.387Z,1000.13
2017-08-25T13:39:15.760Z,1000.13
2017-08-25T13:40:25.812Z,1000.13
2017-08-25T13:41:36.219Z,1000.14
2017-08-25T13:42:46.606Z,1000.1
2017-08-25T13:43:59.464Z,1000.09
2017-08-25T13:45:10.175Z,1000.07
2017-08-25T13:46:20.550Z,1000.04
2017-08-25T13:47:31.503Z,1000.07
2017-08-25T13:48:41.552Z,1000.05
2017-08-25T13:49:53.543Z,1000.08
2017-08-25T13:51:03.898Z,1000.03
2017-08-25T13:52:14.270Z,1000.06
2017-08-25T13:53:24.683Z,1000.04
2017-08-25T13:54:37.242Z,1000.02
2017-08-25T13:55:47.590Z,1000.02
2017-08-25T13:56:57.963Z,999.99
2017-08-25T13:58:08.021Z,999.98
2017-08-25T13:59:18.584Z,999.92
2017-08-25T14:00:30.767Z,999.95
2017-08-25T14:01:42.648Z,999.93
2017-08-25T14:02:53.077Z,999.95
2017-08-25T14:04:03.458Z,999.92
2017-08-25T14:05:13.565Z,999.93
2017-08-25T14:06:23.951Z,999.92
2017-08-25T14:07:34.308Z,999.92
2017-08-25T14:08:44.382Z,999.9
2017-08-25T14:09:54.467Z,999.88
2017-08-25T14:11:05.756Z,999.87
2017-08-25T14:12:16.140Z,999.83
2017-08-25T14:13:26.493Z,999.83
2017-08-25T14:14:36.900Z,999.84
2017-08-25T14:15:47.267Z,999.86
2017-08-25T14:17:00.477Z,999.82
2017-08-25T14:18:10.843Z,999.82
2017-08-25T14:19:20.899Z,999.78
2017-08-25T14:20:31.456Z,999.75
2017-08-25T14:21:41.177Z,999.76
2017-08-25T14:22:51.593Z,999.72
2017-08-25T14:24:01.327Z,999.75
2017-08-25T14:25:13.168Z,999.78
2017-08-25T14:26:23.548Z,999.73
2017-08-25T14:27:34.916Z,999.72
2017-08-25T14:28:45.015Z,999.71
2017-08-25T14:29:55.387Z,999.71
2017-08-25T14:31:05.744Z,999.71
2017-08-25T14:32:15.790Z,999.69
2017-08-25T14:33:25.857Z,999.71
2017-08-25T14:34:36.271Z,999.71
2017-08-25T14:35:46.620Z,999.71
2017-08-25T14:36:56.682Z,999.73
2017-08-25T14:38:07.062Z,999.68
2017-08-25T14:39:17.347Z,999.69
2017-08-25T14:40:27.794Z,999.66
2017-08-25T14:41:38.287Z,999.63
2017-08-25T14:42:49.794Z,999.65
2017-08-25T14:43:59.849Z,999.63
2017-08-25T14:45:10.230Z,999.62
2017-08-25T14:46:20.313Z,999.61
2017-08-25T14:47:30.694Z,999.62
2017-08-25T14:48:40.755Z,999.58